createdAt,value
2022-11-04T00:01:35.230Z,9.80
2022-11-04T00:04:02.502Z,9.73
2022-11-04T00:06:29.508Z,9.74
2022-11-04T00:08:58.273Z,9.55
2022-11-04T00:11:46.427Z,9.57
2022-11-04T00:14:14.903Z,9.66
2022-11-04T00:17:01.148Z,9.61
2022-11-04T00:19:28.708Z,9.59
2022-11-04T00:22:28.320Z,9.49
2022-11-04T00:24:55.287Z,9.38
2022-11-04T00:27:40.996Z,9.47
2022-11-04T00:30:10.156Z,9.40
2022-11-04T00:32:58.156Z,9.45
2022-11-04T00:35:25.146Z,9.37
2022-11-04T00:37:52.451Z,9.37
2022-11-04T00:40:19.556Z,9.50
2022-11-04T00:42:46.581Z,9.64
2022-11-04T00:45:14.081Z,9.56
2022-11-04T00:47:41.084Z,9.56
2022-11-04T00:50:08.611Z,9.49
2022-11-04T00:52:36.049Z,9.49
2022-11-04T00:55:03.385Z,9.46
2022-11-04T00:57:30.778Z,9.40
2022-11-04T00:59:58.082Z,9.48
2022-11-04T01:02:25.236Z,9.47
2022-11-04T01:04:52.342Z,9.47
2022-11-04T01:07:19.866Z,9.51
2022-11-04T01:09:49.070Z,9.56
2022-11-04T01:12:17.010Z,9.56
2022-11-04T01:14:44.283Z,9.64
2022-11-04T01:17:11.265Z,9.62
2022-11-04T01:19:38.257Z,9.50
2022-11-04T01:22:05.519Z,9.53
2022-11-04T01:24:32.498Z,9.51
2022-11-04T01:26:59.615Z,9.75
2022-11-04T01:29:27.034Z,9.73
2022-11-04T01:31:54.031Z,9.65
2022-11-04T01:34:21.566Z,9.71
2022-11-04T01:36:48.876Z,9.69
2022-11-04T01:39:15.869Z,9.70
2022-11-04T01:41:42.871Z,9.73
2022-11-04T01:44:47.860Z,9.80
2022-11-04T01:47:18.712Z,9.84
2022-11-04T01:49:52.667Z,9.80
2022-11-04T01:52:32.449Z,9.73
2022-11-04T01:55:03.856Z,9.79
2022-11-04T01:57:36.238Z,9.81
2022-11-04T02:00:06.862Z,9.77
2022-11-04T02:02:49.883Z,9.73
2022-11-04T02:05:17.753Z,9.74
2022-11-04T02:07:44.720Z,9.72
2022-11-04T02:10:12.687Z,9.85
2022-11-04T02:12:51.961Z,9.86
2022-11-04T02:15:27.223Z,9.87
2022-11-04T02:17:54.426Z,9.89
2022-11-04T02:20:59.925Z,9.80
2022-11-04T02:23:54.965Z,9.84
2022-11-04T02:26:55.693Z,9.84
2022-11-04T02:29:55.390Z,9.86
2022-11-04T02:32:41.159Z,9.90
2022-11-04T02:35:20.682Z,9.88
2022-11-04T02:40:44.093Z,9.86
2022-11-04T02:43:38.499Z,9.77
2022-11-04T02:46:16.104Z,9.73
2022-11-04T02:48:49.517Z,9.67
2022-11-04T02:51:31.954Z,9.66
2022-11-04T02:54:18.104Z,9.59
2022-11-04T02:56:50.017Z,9.65
2022-11-04T02:59:39.958Z,9.68
2022-11-04T03:02:13.950Z,9.74
2022-11-04T03:04:46.976Z,9.65
2022-11-04T03:07:17.850Z,9.65
2022-11-04T03:09:52.061Z,9.65
2022-11-04T03:12:24.717Z,9.65
2022-11-04T03:14:56.143Z,9.68
2022-11-04T03:17:32.890Z,9.59
2022-11-04T03:20:01.425Z,9.57
2022-11-04T03:22:33.720Z,9.56
2022-11-04T03:25:02.315Z,9.49
2022-11-04T03:27:32.387Z,9.53
2022-11-04T03:30:00.205Z,9.53
2022-11-04T03:32:51.570Z,9.50
2022-11-04T03:35:20.202Z,9.50
2022-11-04T03:37:49.839Z,9.57
2022-11-04T03:40:19.300Z,9.53
2022-11-04T03:42:52.751Z,9.43
2022-11-04T03:45:19.824Z,9.35
2022-11-04T03:47:47.435Z,9.52
2022-11-04T03:50:30.857Z,9.54
2022-11-04T03:52:59.525Z,9.65
2022-11-04T03:55:49.314Z,9.57
2022-11-04T03:58:44.735Z,9.55
2022-11-04T04:01:14.821Z,9.57
2022-11-04T04:03:51.530Z,9.56
2022-11-04T04:06:33.222Z,9.57
2022-11-04T04:09:13.831Z,9.56
2022-11-04T04:11:46.680Z,9.52
2022-11-04T04:14:40.264Z,9.49
2022-11-04T04:19:48.052Z,9.54
2022-11-04T04:22:25.148Z,9.54
2022-11-04T04:25:15.660Z,9.58
2022-11-04T04:27:44.189Z,9.53
2022-11-04T04:30:16.323Z,9.58
2022-11-04T04:32:48.527Z,9.70
2022-11-04T04:35:36.077Z,9.57
2022-11-04T04:38:25.477Z,9.59
2022-11-04T04:41:22.532Z,9.60
2022-11-04T04:44:08.311Z,9.56
2022-11-04T04:46:37.624Z,9.57
2022-11-04T04:49:06.620Z,9.55
2022-11-04T04:51:36.141Z,9.64
2022-11-04T04:54:03.612Z,9.46
2022-11-04T04:56:30.643Z,9.40
2022-11-04T04:58:57.650Z,9.51
2022-11-04T05:01:25.078Z,9.51
2022-11-04T05:03:52.238Z,9.43
2022-11-04T05:06:19.207Z,9.35
2022-11-04T05:08:46.464Z,9.37
2022-11-04T05:11:13.840Z,9.32
2022-11-04T05:13:40.823Z,9.36
2022-11-04T05:16:11.505Z,9.30
2022-11-04T05:18:38.869Z,9.29
2022-11-04T05:21:07.916Z,9.22
2022-11-04T05:23:35.701Z,9.28
2022-11-04T05:26:02.844Z,9.22
2022-11-04T05:28:30.056Z,9.16
2022-11-04T05:30:57.406Z,9.01
2022-11-04T05:33:24.507Z,9.10
2022-11-04T05:35:51.525Z,9.11
2022-11-04T05:38:18.807Z,9.06
2022-11-04T05:40:45.773Z,9.07
2022-11-04T05:43:12.826Z,9.18
2022-11-04T05:45:40.097Z,9.01
2022-11-04T05:48:07.135Z,9.01
2022-11-04T05:50:34.919Z,8.98
2022-11-04T05:53:02.264Z,8.95
2022-11-04T05:55:29.321Z,9.11
2022-11-04T05:57:58.051Z,9.03
2022-11-04T06:00:27.359Z,9.00
2022-11-04T06:02:57.373Z,8.97
2022-11-04T06:05:25.659Z,8.89
2022-11-04T06:07:52.766Z,8.88
2022-11-04T06:10:20.376Z,9.05
2022-11-04T06:12:47.480Z,9.10
2022-11-04T06:15:14.583Z,9.04
2022-11-04T06:17:41.802Z,9.04
2022-11-04T06:20:09.989Z,8.89
2022-11-04T06:22:36.932Z,9.00
2022-11-04T06:25:04.491Z,8.87
2022-11-04T06:27:31.501Z,8.83
2022-11-04T06:29:58.525Z,8.82
2022-11-04T06:32:25.855Z,8.80
2022-11-04T06:34:52.951Z,8.72
2022-11-04T06:37:19.936Z,8.91
2022-11-04T06:39:47.258Z,8.81
2022-11-04T06:42:14.216Z,8.87
2022-11-04T06:44:41.158Z,8.98
2022-11-04T06:47:09.734Z,9.07
2022-11-04T06:49:36.727Z,9.09
2022-11-04T06:52:03.849Z,9.00
2022-11-04T06:54:31.185Z,9.03
2022-11-04T06:56:58.228Z,9.21
2022-11-04T06:59:25.233Z,9.18
2022-11-04T07:01:52.652Z,9.13
2022-11-04T07:04:20.822Z,9.26
2022-11-04T07:06:48.178Z,9.28
2022-11-04T07:09:16.009Z,9.30
2022-11-04T07:11:44.443Z,9.18
2022-11-04T07:14:12.301Z,9.19
2022-11-04T07:16:39.933Z,9.26
2022-11-04T07:19:07.160Z,9.15
2022-11-04T07:21:34.389Z,9.25
2022-11-04T07:24:02.496Z,9.14
2022-11-04T07:26:29.900Z,9.23
2022-11-04T07:28:56.879Z,9.13
2022-11-04T07:31:24.175Z,9.08
2022-11-04T07:33:51.565Z,9.10
2022-11-04T07:36:19.851Z,9.10
2022-11-04T07:38:47.402Z,9.01
2022-11-04T07:41:15.106Z,8.95
2022-11-04T07:43:42.172Z,8.97
2022-11-04T07:46:14.719Z,8.96
2022-11-04T07:48:41.749Z,8.97
2022-11-04T07:51:11.370Z,8.88
2022-11-04T07:53:38.747Z,9.01
2022-11-04T07:56:07.795Z,8.91
2022-11-04T07:58:35.049Z,9.01
2022-11-04T08:01:09.983Z,8.87
2022-11-04T08:03:37.752Z,8.90
2022-11-04T08:06:07.439Z,9.03
2022-11-04T08:08:35.156Z,9.00
2022-11-04T08:11:06.448Z,9.16
2022-11-04T08:13:35.810Z,9.15
2022-11-04T08:16:13.394Z,9.09
2022-11-04T08:18:41.030Z,9.01
2022-11-04T08:21:09.380Z,8.97
2022-11-04T08:23:37.043Z,9.00
2022-11-04T08:26:08.845Z,9.09
2022-11-04T08:28:36.918Z,9.08
2022-11-04T08:31:07.251Z,8.91
2022-11-04T08:33:36.061Z,9.02
2022-11-04T08:36:10.139Z,9.15
2022-11-04T08:38:37.566Z,9.16
2022-11-04T08:41:07.376Z,9.25
2022-11-04T08:43:35.197Z,9.12
2022-11-04T08:46:04.648Z,9.08
2022-11-04T08:48:31.976Z,9.01
2022-11-04T08:50:59.535Z,9.03
2022-11-04T08:53:26.624Z,9.18
2022-11-04T08:55:54.601Z,9.17
2022-11-04T08:58:23.537Z,9.08
2022-11-04T09:00:52.087Z,9.04
2022-11-04T09:03:20.544Z,9.12
2022-11-04T09:05:49.179Z,9.08
2022-11-04T09:08:18.098Z,9.08
2022-11-04T09:10:47.532Z,9.02
2022-11-04T09:13:15.946Z,9.08
2022-11-04T09:15:43.956Z,9.01
2022-11-04T09:18:11.359Z,9.02
2022-11-04T09:20:42.257Z,8.94
2022-11-04T09:23:09.714Z,9.00
2022-11-04T09:25:37.344Z,9.02
2022-11-04T09:28:04.727Z,9.00
2022-11-04T09:30:32.494Z,8.91
2022-11-04T09:33:00.627Z,8.96
2022-11-04T09:35:27.878Z,8.89
2022-11-04T09:37:55.369Z,8.88
2022-11-04T09:40:24.922Z,8.82
2022-11-04T09:43:10.326Z,8.93
2022-11-04T09:45:42.254Z,9.01
2022-11-04T09:48:19.672Z,9.00
2022-11-04T09:50:57.531Z,9.04
2022-11-04T09:53:35.645Z,9.01
2022-11-04T09:56:34.909Z,8.99
2022-11-04T09:59:06.356Z,8.89
2022-11-04T10:01:37.666Z,8.84
2022-11-04T10:04:32.958Z,8.82
2022-11-04T10:07:11.272Z,8.84
2022-11-04T10:09:57.191Z,8.81
2022-11-04T10:15:40.191Z,8.82
2022-11-04T10:18:22.585Z,8.98
2022-11-04T10:21:11.553Z,8.91
2022-11-04T10:23:45.965Z,8.91
2022-11-04T10:26:25.184Z,8.92
2022-11-04T10:29:02.705Z,9.04
2022-11-04T10:31:29.934Z,9.11
2022-11-04T10:34:05.687Z,9.23
2022-11-04T10:36:33.680Z,9.31
2022-11-04T10:39:04.784Z,9.32
2022-11-04T10:41:38.276Z,9.37
2022-11-04T10:44:20.855Z,9.38
2022-11-04T10:47:28.424Z,9.44
2022-11-04T10:50:34.643Z,9.34
2022-11-04T10:53:24.076Z,9.21
2022-11-04T10:55:54.314Z,9.26
2022-11-04T10:58:25.303Z,9.34
2022-11-04T11:00:53.821Z,9.37
2022-11-04T11:03:23.952Z,9.49
2022-11-04T11:06:10.396Z,9.66
2022-11-04T11:08:38.199Z,9.70
2022-11-04T11:11:08.971Z,9.80
2022-11-04T11:13:40.747Z,9.95
2022-11-04T11:16:11.950Z,10.02
2022-11-04T11:18:40.135Z,10.02
2022-11-04T11:21:18.374Z,10.07
2022-11-04T11:23:51.200Z,10.04
2022-11-04T11:26:32.430Z,9.93
2022-11-04T11:29:04.111Z,9.99
2022-11-04T11:31:39.182Z,9.98
2022-11-04T11:34:15.427Z,9.99
2022-11-04T11:36:44.748Z,9.96
2022-11-04T11:39:12.155Z,10.05
2022-11-04T11:42:19.608Z,10.10
2022-11-04T11:44:52.628Z,10.24
2022-11-04T11:47:42.413Z,10.32
2022-11-04T11:50:34.079Z,10.43
2022-11-04T11:53:24.299Z,10.49
2022-11-04T11:56:52.156Z,10.41
2022-11-04T12:03:18.346Z,10.50
2022-11-04T12:09:18.307Z,10.54
2022-11-04T12:12:40.946Z,10.48
2022-11-04T12:15:40.222Z,10.52
2022-11-04T12:19:04.849Z,10.44
2022-11-04T12:21:57.931Z,10.48
2022-11-04T12:24:53.326Z,10.63
2022-11-04T12:27:40.344Z,10.66
2022-11-04T12:30:35.499Z,10.71
2022-11-04T12:33:51.180Z,10.91
2022-11-04T12:36:55.952Z,11.00
2022-11-04T12:40:37.335Z,10.91
2022-11-04T12:43:35.752Z,10.99
2022-11-04T12:46:35.979Z,10.99
2022-11-04T12:49:56.426Z,11.01
2022-11-04T12:53:17.954Z,11.14
2022-11-04T12:56:22.115Z,11.07
2022-11-04T12:59:42.351Z,11.01
2022-11-04T13:02:41.139Z,11.01
2022-11-04T13:05:43.129Z,11.08
2022-11-04T13:08:17.188Z,11.23
2022-11-04T13:10:56.217Z,11.12
2022-11-04T13:13:34.643Z,11.03
2022-11-04T13:16:11.752Z,10.96
2022-11-04T13:18:41.396Z,11.03
2022-11-04T13:21:14.120Z,10.95
2022-11-04T13:24:04.818Z,10.79
2022-11-04T13:26:32.795Z,10.76
2022-11-04T13:29:14.102Z,10.77
2022-11-04T13:31:50.537Z,10.74
2022-11-04T13:34:33.241Z,10.75
2022-11-04T13:37:00.560Z,10.69
2022-11-04T13:39:35.034Z,10.59
2022-11-04T13:42:12.140Z,10.49
2022-11-04T13:44:52.635Z,10.49
2022-11-04T13:47:27.690Z,10.52
2022-11-04T13:49:56.032Z,10.48
2022-11-04T13:52:30.094Z,10.43
2022-11-04T13:55:04.009Z,10.36
2022-11-04T13:57:34.945Z,10.43
2022-11-04T14:00:13.293Z,10.49
2022-11-04T14:02:46.661Z,10.50
2022-11-04T14:05:28.880Z,10.46
2022-11-04T14:08:02.283Z,10.55
2022-11-04T14:10:47.999Z,10.60
2022-11-04T14:13:30.431Z,10.52
2022-11-04T14:16:06.186Z,10.43
2022-11-04T14:18:39.584Z,10.39
2022-11-04T14:21:15.658Z,10.38
2022-11-04T14:24:16.282Z,10.35
2022-11-04T14:26:48.504Z,10.39
2022-11-04T14:29:20.496Z,10.41
2022-11-04T14:31:51.485Z,10.37
2022-11-04T14:34:31.700Z,10.40
2022-11-04T14:37:01.017Z,10.31
2022-11-04T14:39:31.820Z,10.29
2022-11-04T14:42:04.627Z,10.30
2022-11-04T14:44:50.393Z,10.25
2022-11-04T14:47:30.893Z,10.22
2022-11-04T14:49:58.152Z,10.30
2022-11-04T14:52:32.459Z,10.26
2022-11-04T14:55:11.962Z,10.23
2022-11-04T14:57:40.590Z,10.26
2022-11-04T15:00:50.364Z,10.24
2022-11-04T15:06:13.811Z,10.21
2022-11-04T15:08:40.750Z,10.23
2022-11-04T15:11:16.624Z,10.27
2022-11-04T15:13:44.573Z,10.22
2022-11-04T15:16:24.347Z,10.23
2022-11-04T15:18:54.070Z,10.24
2022-11-04T15:21:21.963Z,10.20
2022-11-04T15:23:58.120Z,10.18
2022-11-04T15:26:31.634Z,10.24
2022-11-04T15:29:02.341Z,10.21
2022-11-04T15:31:32.771Z,10.29
2022-11-04T15:34:02.831Z,10.33
2022-11-04T15:36:35.084Z,10.32
2022-11-04T15:39:08.167Z,10.23
2022-11-04T15:41:57.566Z,10.31
2022-11-04T15:44:30.395Z,10.32
2022-11-04T15:47:00.693Z,10.35
2022-11-04T15:49:33.490Z,10.43
2022-11-04T15:52:12.108Z,10.44
2022-11-04T15:54:50.825Z,10.36
2022-11-04T15:57:25.469Z,10.40
2022-11-04T16:00:01.358Z,10.48
2022-11-04T16:02:31.166Z,10.49
2022-11-04T16:05:04.289Z,10.49
2022-11-04T16:07:36.673Z,10.55
2022-11-04T16:10:26.888Z,10.57
2022-11-04T16:13:01.308Z,10.64
2022-11-04T16:15:46.224Z,10.54
2022-11-04T16:18:36.754Z,10.59
2022-11-04T16:21:13.277Z,10.59
2022-11-04T16:23:47.054Z,10.64
2022-11-04T16:26:15.061Z,10.65
2022-11-04T16:28:42.831Z,10.68
2022-11-04T16:31:33.011Z,10.62
2022-11-04T16:34:00.976Z,10.70
2022-11-04T16:36:34.015Z,10.78
2022-11-04T16:39:08.568Z,10.76
2022-11-04T16:41:38.645Z,10.70
2022-11-04T16:44:15.557Z,10.82
2022-11-04T16:46:42.623Z,10.80
2022-11-04T16:49:14.676Z,10.86
2022-11-04T16:51:42.603Z,10.84
2022-11-04T16:54:10.417Z,10.82
2022-11-04T16:56:38.409Z,10.84
2022-11-04T16:59:05.442Z,10.87
2022-11-04T17:01:32.943Z,10.83
2022-11-04T17:04:00.089Z,10.84
2022-11-04T17:06:27.054Z,10.91
2022-11-04T17:08:55.567Z,10.99
2022-11-04T17:11:22.554Z,10.98
2022-11-04T17:13:49.742Z,11.10
2022-11-04T17:16:17.059Z,11.13
2022-11-04T17:18:44.149Z,11.18
2022-11-04T17:21:17.104Z,11.15
2022-11-04T17:23:44.604Z,11.17
2022-11-04T17:26:12.913Z,11.22
2022-11-04T17:28:40.037Z,11.30
2022-11-04T17:31:07.998Z,11.22
2022-11-04T17:33:35.011Z,11.24
2022-11-04T17:36:07.475Z,11.30
2022-11-04T17:38:35.153Z,11.26
2022-11-04T17:41:20.434Z,11.31
2022-11-04T17:44:02.783Z,11.42
2022-11-04T17:46:41.487Z,11.42
2022-11-04T17:49:13.914Z,11.44
2022-11-04T17:51:42.961Z,11.34
2022-11-04T17:54:10.739Z,11.44
2022-11-04T17:56:38.932Z,11.47
2022-11-04T17:59:07.226Z,11.44
2022-11-04T18:01:36.154Z,11.55
2022-11-04T18:04:04.303Z,11.51
2022-11-04T18:06:33.717Z,11.59
2022-11-04T18:09:02.041Z,11.59
2022-11-04T18:11:48.580Z,11.60
2022-11-04T18:14:17.557Z,11.61
2022-11-04T18:16:46.885Z,11.62
2022-11-04T18:19:15.300Z,11.51
2022-11-04T18:21:42.409Z,11.58
2022-11-04T18:24:10.158Z,11.57
2022-11-04T18:26:38.869Z,11.56
2022-11-04T18:29:06.156Z,11.43
2022-11-04T18:31:41.245Z,11.56
2022-11-04T18:34:14.353Z,11.54
2022-11-04T18:36:42.249Z,11.54
2022-11-04T18:39:13.574Z,11.61
2022-11-04T18:41:41.071Z,11.68
2022-11-04T18:44:12.592Z,11.57
2022-11-04T18:46:39.580Z,11.57
2022-11-04T18:49:06.569Z,11.63
2022-11-04T18:51:33.956Z,11.53
2022-11-04T18:54:04.159Z,11.55
2022-11-04T18:56:31.809Z,11.45
2022-11-04T18:58:59.583Z,11.42
2022-11-04T19:01:33.325Z,11.45
2022-11-04T19:04:01.184Z,11.38
2022-11-04T19:06:33.089Z,11.47
2022-11-04T19:09:13.246Z,11.51
2022-11-04T19:11:46.773Z,11.47
2022-11-04T19:14:18.941Z,11.44
2022-11-04T19:16:45.933Z,11.39
2022-11-04T19:19:17.925Z,11.33
2022-11-04T19:21:47.265Z,11.35
2022-11-04T19:24:14.553Z,11.42
2022-11-04T19:26:42.172Z,11.38
2022-11-04T19:29:11.904Z,11.57
2022-11-04T19:31:40.201Z,11.60
2022-11-04T19:34:08.465Z,11.50
2022-11-04T19:36:37.379Z,11.50
2022-11-04T19:39:05.908Z,11.43
2022-11-04T19:41:51.544Z,11.43
2022-11-04T19:44:21.848Z,11.45
2022-11-04T19:46:49.367Z,11.36
2022-11-04T19:49:19.857Z,11.46
2022-11-04T19:51:47.342Z,11.44
2022-11-04T19:54:14.395Z,11.51
2022-11-04T19:56:41.783Z,11.44
2022-11-04T19:59:10.837Z,11.35
2022-11-04T20:01:38.270Z,11.37
2022-11-04T20:04:06.136Z,11.43
2022-11-04T20:06:33.255Z,11.61
2022-11-04T20:09:05.606Z,11.53
2022-11-04T20:11:36.094Z,11.59
2022-11-04T20:14:07.839Z,11.58
2022-11-04T20:16:39.433Z,11.50
2022-11-04T20:19:07.035Z,11.52
2022-11-04T20:21:36.516Z,11.51
2022-11-04T20:24:06.637Z,11.59
2022-11-04T20:26:36.450Z,11.60
2022-11-04T20:29:05.817Z,11.55
2022-11-04T20:31:35.978Z,11.56
2022-11-04T20:34:07.863Z,11.49
2022-11-04T20:36:36.084Z,11.49
2022-11-04T20:39:06.234Z,11.55
2022-11-04T20:41:33.310Z,11.63
2022-11-04T20:44:00.492Z,11.57
2022-11-04T20:46:30.049Z,11.50
2022-11-04T20:48:58.355Z,11.49
2022-11-04T20:51:28.757Z,11.55
2022-11-04T20:54:00.349Z,11.70
2022-11-04T20:56:31.863Z,11.61
2022-11-04T20:59:00.441Z,11.60
2022-11-04T21:01:31.499Z,11.56
2022-11-04T21:04:01.114Z,11.63
2022-11-04T21:06:29.173Z,11.62
2022-11-04T21:09:00.163Z,11.61
2022-11-04T21:11:31.710Z,11.64
2022-11-04T21:13:59.800Z,11.55
2022-11-04T21:16:27.250Z,11.58
2022-11-04T21:18:55.100Z,11.54
2022-11-04T21:21:23.031Z,11.48
2022-11-04T21:23:51.286Z,11.31
2022-11-04T21:26:24.293Z,11.26
2022-11-04T21:28:55.272Z,11.18
2022-11-04T21:31:23.987Z,11.13
2022-11-04T21:33:51.925Z,11.09
2022-11-04T21:36:20.787Z,11.12
2022-11-04T21:38:49.044Z,11.08
2022-11-04T21:41:19.174Z,10.98
2022-11-04T21:43:46.133Z,10.84
2022-11-04T21:46:15.705Z,10.70
2022-11-04T21:48:43.128Z,10.59
2022-11-04T21:51:15.973Z,10.54
2022-11-04T21:53:43.775Z,10.31
2022-11-04T21:56:14.829Z,10.22
2022-11-04T21:58:43.423Z,10.28
2022-11-04T22:01:13.905Z,10.18
2022-11-04T22:03:41.358Z,10.25
2022-11-04T22:06:10.924Z,10.10
2022-11-04T22:08:39.181Z,10.00
2022-11-04T22:11:15.538Z,10.07
2022-11-04T22:13:42.695Z,9.90
2022-11-04T22:16:29.997Z,9.73
2022-11-04T22:18:59.814Z,9.69
2022-11-04T22:21:29.024Z,9.57
2022-11-04T22:23:56.836Z,9.46
2022-11-04T22:26:29.895Z,9.42
2022-11-04T22:28:57.684Z,9.22
2022-11-04T22:31:36.902Z,9.32
2022-11-04T22:34:05.275Z,9.21
2022-11-04T22:36:33.574Z,9.14
2022-11-04T22:39:00.662Z,9.10
2022-11-04T22:41:31.483Z,9.11
2022-11-04T22:43:58.822Z,9.10
2022-11-04T22:46:28.484Z,8.99
2022-11-04T22:48:56.142Z,9.06
2022-11-04T22:51:23.393Z,9.01
2022-11-04T22:53:57.719Z,8.89
2022-11-04T22:56:27.521Z,8.90
2022-11-04T22:58:55.012Z,8.85
2022-11-04T23:01:22.433Z,8.66
2022-11-04T23:03:52.859Z,8.57
2022-11-04T23:06:20.098Z,8.48
2022-11-04T23:08:47.177Z,8.57
2022-11-04T23:11:36.864Z,8.62
2022-11-04T23:14:22.663Z,8.55
2022-11-04T23:17:10.152Z,8.42
2022-11-04T23:19:38.113Z,8.40
2022-11-04T23:22:25.350Z,8.35
2022-11-04T23:25:11.323Z,8.45
2022-11-04T23:28:04.037Z,8.48
2022-11-04T23:30:37.310Z,8.48
2022-11-04T23:33:07.604Z,8.43
2022-11-04T23:35:54.860Z,8.55
2022-11-04T23:38:22.905Z,8.47
2022-11-04T23:41:11.085Z,8.36
2022-11-04T23:43:38.356Z,8.35
2022-11-04T23:46:41.197Z,8.41
2022-11-04T23:49:29.974Z,8.32
2022-11-04T23:52:15.888Z,8.25
2022-11-04T23:55:03.410Z,8.21
2022-11-04T23:57:49.286Z,8.23
